createdAt,value
2022-08-18T00:01:06.038Z,23.7
2022-08-18T00:11:05.939Z,23.9
2022-08-18T00:21:06.034Z,23.8
2022-08-18T00:31:05.916Z,23.8
2022-08-18T00:41:06.043Z,23.8
2022-08-18T00:51:06.137Z,23.8
2022-08-18T01:01:06.094Z,23.7
2022-08-18T01:11:06.106Z,23.7
2022-08-18T01:21:06.018Z,23.7
2022-08-18T01:31:06.117Z,23.7
2022-08-18T01:41:28.094Z,23.7
2022-08-18T01:51:06.108Z,23.7
2022-08-18T02:01:06.008Z,23.7
2022-08-18T02:11:06.107Z,23.6
2022-08-18T02:21:06.213Z,23.6
2022-08-18T02:31:06.102Z,23.6
2022-08-18T02:41:06.197Z,23.6
2022-08-18T02:51:06.103Z,23.6
2022-08-18T03:01:06.252Z,23.6
2022-08-18T03:11:06.106Z,23.5
2022-08-18T03:21:07.701Z,23.5
2022-08-18T03:31:06.104Z,23.5
2022-08-18T03:41:06.191Z,23.4
2022-08-18T03:51:06.292Z,23.5
2022-08-18T04:01:06.350Z,23.5
2022-08-18T04:11:06.291Z,23.5
2022-08-18T04:21:06.193Z,23.4
2022-08-18T04:31:06.290Z,23.5
2022-08-18T04:41:06.203Z,23.5
2022-08-18T04:51:06.302Z,23.4
2022-08-18T05:01:06.271Z,23.4
2022-08-18T05:11:06.279Z,23.4
2022-08-18T05:21:06.381Z,23.4
2022-08-18T05:31:08.621Z,23.3
2022-08-18T05:41:06.373Z,23.3
2022-08-18T05:51:06.276Z,23.4
2022-08-18T06:01:06.364Z,23.4
2022-08-18T06:11:06.265Z,23.4
2022-08-18T06:21:06.376Z,23.4
2022-08-18T06:31:06.466Z,23.4
2022-08-18T06:41:06.363Z,23.4
2022-08-18T06:51:06.457Z,23.4
2022-08-18T07:01:06.392Z,23.4
2022-08-18T07:11:06.454Z,23.4
2022-08-18T07:21:06.352Z,23.4
2022-08-18T07:31:16.239Z,23.4
2022-08-18T07:41:06.340Z,23.4
2022-08-18T07:51:07.801Z,23.4
2022-08-18T08:01:06.542Z,23.4
2022-08-18T08:11:06.443Z,23.5
2022-08-18T08:21:06.560Z,23.6
2022-08-18T08:31:32.868Z,23.6
2022-08-18T08:41:06.542Z,23.5
2022-08-18T08:51:06.431Z,23.5
2022-08-18T09:01:06.571Z,23.5
2022-08-18T09:11:07.626Z,23.6
2022-08-18T09:21:06.545Z,23.7
2022-08-18T09:31:07.240Z,23.8
2022-08-18T09:41:06.594Z,23.8
2022-08-18T09:51:06.688Z,23.9
2022-08-18T10:01:06.621Z,23.9
2022-08-18T10:11:09.218Z,23.7
2022-08-18T10:21:06.537Z,23.8
2022-08-18T10:31:09.677Z,23.7
2022-08-18T10:41:10.106Z,23.8
2022-08-18T10:51:06.629Z,23.8
2022-08-18T11:01:06.732Z,23.7
2022-08-18T11:11:27.807Z,23.8
2022-08-18T11:21:08.208Z,23.8
2022-08-18T11:31:06.717Z,23.7
2022-08-18T11:41:09.255Z,23.9
2022-08-18T11:51:06.608Z,24
2022-08-18T12:01:06.711Z,24
2022-08-18T12:11:26.980Z,24
2022-08-18T12:21:06.706Z,24
2022-08-18T12:31:06.805Z,24.1
2022-08-18T12:41:06.702Z,24
2022-08-18T12:51:06.898Z,24
2022-08-18T13:01:06.735Z,23.9
2022-08-18T13:11:14.885Z,23.9
2022-08-18T13:21:07.244Z,23.9
2022-08-18T13:31:07.072Z,24
2022-08-18T13:41:06.968Z,23.9
2022-08-18T13:51:08.233Z,23.9
2022-08-18T14:01:37.636Z,23.8
2022-08-18T14:11:06.858Z,23.6
2022-08-18T14:21:06.936Z,23.7
2022-08-18T14:31:07.000Z,23.6
2022-08-18T14:41:06.914Z,23.7
2022-08-18T14:51:06.788Z,23.6
2022-08-18T15:01:08.555Z,23.6
2022-08-18T15:11:11.520Z,23.6
2022-08-18T15:21:10.224Z,23.6
2022-08-18T15:41:09.312Z,23.6
2022-08-18T15:51:11.584Z,23.6
2022-08-18T16:01:21.026Z,23.7
2022-08-18T16:11:06.988Z,23.7
2022-08-18T16:21:06.919Z,23.7
2022-08-18T16:31:06.984Z,23.6
2022-08-18T16:41:07.435Z,23.7
2022-08-18T16:51:06.999Z,23.5
2022-08-18T17:01:07.072Z,23.7
2022-08-18T17:11:06.965Z,23.8
2022-08-18T17:21:07.073Z,23.7
2022-08-18T17:31:06.971Z,23.7
2022-08-18T17:41:07.100Z,23.6
2022-08-18T17:51:06.957Z,23.5
2022-08-18T18:01:07.097Z,23.7
2022-08-18T18:11:07.202Z,23.7
2022-08-18T18:21:07.084Z,23.7
2022-08-18T18:31:07.193Z,23.7
2022-08-18T18:41:07.091Z,23.7
2022-08-18T18:51:10.842Z,23.6
2022-08-18T19:01:07.126Z,23.6
2022-08-18T19:11:07.225Z,23.6
2022-08-18T19:22:03.028Z,23.7
2022-08-18T19:31:07.180Z,23.6
2022-08-18T19:41:07.121Z,23.7
2022-08-18T19:51:07.243Z,23.7
2022-08-18T20:01:07.397Z,23.7
2022-08-18T20:11:07.184Z,23.6
2022-08-18T20:21:07.279Z,23.7
2022-08-18T20:31:07.204Z,23.7
2022-08-18T20:41:07.274Z,23.6
2022-08-18T20:51:07.173Z,23.7
2022-08-18T21:01:07.284Z,23.6
2022-08-18T21:11:07.166Z,23.6
2022-08-18T21:21:07.271Z,23.6
2022-08-18T21:31:28.791Z,23.5
2022-08-18T21:41:07.261Z,23.6
2022-08-18T21:51:07.375Z,23.4
2022-08-18T22:01:07.288Z,23.5
2022-08-18T22:11:07.359Z,23.5
2022-08-18T22:21:10.432Z,23.4
2022-08-18T22:31:07.402Z,23.4
2022-08-18T22:41:07.459Z,23.3
2022-08-18T22:51:07.417Z,23.4
2022-08-18T23:01:07.339Z,23.1
2022-08-18T23:11:07.416Z,23.3
2022-08-18T23:21:07.315Z,23.2
2022-08-18T23:31:07.413Z,23.2
2022-08-18T23:41:07.532Z,23.1
2022-08-18T23:51:07.403Z,23.2
